Dades meteomassalio
Diari Summary for Febrer 5, 2017 Units:  Metric    English   Both
« Previous Day
Next Day »
Diari Semanal Mensual Anual Personalitzat
  Maxima: Minima: Mijana:
Temperatura: 14.8 °C 7.1 °C 9.6 °C
Rosada: 8.9 °C 0.0 °C 4.4 °C
Humitat: 92 % 54 % 71 %
Velocitat del vent: 68.5 km/h 0.0 km/h 28.7 km/h
Racha vent: 68.5 km/h - -
Vent:- - SSE
Pressio: 1021.9 hPa 1007.3 hPa -
Pluja: 4.3 mm    
Historical Graphs
 
 
Tabular Data for Febrer 5, 2017
Time Temperature Dew Point Pressure Wind Wind Speed Wind Gust Humidity Rainfall Rate (Hourly) solar Conditions
00:03 8.5 °C 7.1 °C 1010.7 hPa Calm     91 % 0.0 mm 0.0 W/m2 CLR
00:08 8.5 °C 7.1 °C 1010.7 hPa Calm     91 % 0.0 mm 0.0 W/m2 CLR
00:13 8.4 °C 7.1 °C 1010.7 hPa Calm     91 % 0.0 mm 0.0 W/m2 CLR
00:18 8.3 °C 6.9 °C 1010.7 hPa Calm     91 % 0.0 mm 0.0 W/m2 CLR
00:23 8.3 °C 6.9 °C 1010.7 hPa Calm     91 % 0.0 mm 0.0 W/m2 CLR
00:28 8.3 °C 6.9 °C 1010.7 hPa Calm     91 % 0.0 mm 0.0 W/m2 CLR
00:33 8.2 °C 6.8 °C 1010.7 hPa Calm     91 % 0.0 mm 0.0 W/m2 CLR
00:38 8.3 °C 7.1 °C 1010.4 hPa Calm     92 % 0.0 mm 0.0 W/m2 CLR
00:43 8.4 °C 7.2 °C 1010.4 hPa Calm     92 % 0.0 mm 0.0 W/m2 CLR
00:48 8.3 °C 6.9 °C 1010.4 hPa Calm     91 % 0.0 mm 0.0 W/m2 CLR
00:53 8.2 °C 6.8 °C 1010.4 hPa Calm     91 % 0.0 mm 0.0 W/m2 CLR
00:58 8.3 °C 7.1 °C 1010.4 hPa Calm     92 % 0.0 mm 0.0 W/m2 CLR
01:03 8.4 °C 7.2 °C 1010.4 hPa SW 13.0 km/h 13.0 km/h 92 % 0.0 mm 0.0 W/m2 CLR
01:08 8.9 °C 7.7 °C 1010.0 hPa Calm     92 % 0.0 mm 0.0 W/m2 CLR
01:13 9.4 °C 8.0 °C 1010.0 hPa WSW 14.8 km/h 14.8 km/h 91 % 0.0 mm 0.0 W/m2 CLR
01:18 10.4 °C 8.6 °C 1010.0 hPa WSW 7.4 km/h 7.4 km/h 88 % 0.0 mm 0.0 W/m2 CLR
01:23 11.1 °C 8.4 °C 1010.0 hPa WSW 9.3 km/h 9.3 km/h 84 % 0.0 mm 0.0 W/m2 CLR
01:28 12.7 °C 8.9 °C 1009.7 hPa West 7.4 km/h 7.4 km/h 78 % 0.0 mm 0.0 W/m2 CLR
01:33 13.8 °C 8.8 °C 1009.7 hPa West 9.3 km/h 9.3 km/h 72 % 0.0 mm 0.0 W/m2 CLR
01:38 14.5 °C 8.7 °C 1009.7 hPa West 13.0 km/h 13.0 km/h 68 % 0.0 mm 0.0 W/m2 CLR
01:43 14.8 °C 8.6 °C 1009.7 hPa WNW 9.3 km/h 9.3 km/h 66 % 0.0 mm 0.0 W/m2 CLR
01:48 14.6 °C 8.5 °C 1009.7 hPa WNW 8.0 km/h 8.0 km/h 67 % 0.0 mm 0.0 W/m2 CLR
01:53 14.3 °C 8.2 °C 1009.7 hPa WNW 5.6 km/h 5.6 km/h 67 % 0.0 mm 0.0 W/m2 CLR
01:58 14.2 °C 8.1 °C 1009.4 hPa Calm     67 % 0.0 mm 0.0 W/m2 CLR
02:03 14.3 °C 8.1 °C 1009.4 hPa Calm     66 % 0.0 mm 0.0 W/m2 CLR
02:08 13.9 °C 8.3 °C 1009.4 hPa Calm     69 % 0.0 mm 0.0 W/m2 CLR
02:13 13.1 °C 7.9 °C 1009.4 hPa Calm     71 % 0.0 mm 0.0 W/m2 CLR
02:18 12.8 °C 7.8 °C 1009.4 hPa Calm     72 % 0.0 mm 0.0 W/m2 CLR
02:23 12.6 °C 7.8 °C 1009.4 hPa Calm     73 % 0.0 mm 0.0 W/m2 CLR
02:28 12.5 °C 8.0 °C 1009.4 hPa Calm     74 % 0.0 mm 0.0 W/m2 CLR
02:33 12.3 °C 7.8 °C 1009.4 hPa Calm     74 % 0.0 mm 0.0 W/m2 CLR
02:38 12.3 °C 7.9 °C 1009.4 hPa Calm     75 % 0.0 mm 0.0 W/m2 CLR
02:43 12.3 °C 7.9 °C 1009.4 hPa Calm     75 % 0.0 mm 0.0 W/m2 CLR
02:48 12.4 °C 8.1 °C 1009.0 hPa Calm     75 % 0.0 mm 0.0 W/m2 CLR
02:53 12.1 °C 7.8 °C 1009.0 hPa Calm     75 % 0.0 mm 0.0 W/m2 CLR
02:58 12.1 °C 8.0 °C 1009.0 hPa Calm     76 % 0.0 mm 0.0 W/m2 CLR
03:03 12.3 °C 8.0 °C 1008.7 hPa Calm     75 % 0.0 mm 0.0 W/m2 CLR
03:08 12.4 °C 8.1 °C 1008.7 hPa Calm     75 % 0.0 mm 0.0 W/m2 CLR
03:13 12.2 °C 7.9 °C 1008.7 hPa East 7.4 km/h 7.4 km/h 75 % 0.0 mm 0.0 W/m2 CLR
03:18 11.8 °C 7.9 °C 1008.7 hPa Calm     77 % 0.0 mm 0.0 W/m2 CLR
03:23 11.8 °C 7.9 °C 1008.4 hPa Calm     77 % 0.0 mm 0.0 W/m2 CLR
03:28 11.9 °C 8.1 °C 1008.4 hPa Calm     77 % 0.0 mm 0.0 W/m2 CLR
03:33 11.6 °C 7.7 °C 1008.4 hPa Calm     77 % 0.0 mm 0.0 W/m2 CLR
03:38 11.4 °C 7.9 °C 1008.4 hPa Calm     79 % 0.0 mm 0.0 W/m2 CLR
03:43 11.1 °C 7.8 °C 1008.0 hPa Calm     80 % 0.0 mm 0.0 W/m2 CLR
03:48 10.9 °C 7.8 °C 1008.0 hPa Calm     81 % 0.0 mm 0.0 W/m2 CLR
03:53 10.9 °C 7.8 °C 1008.0 hPa Calm     81 % 0.0 mm 0.0 W/m2 CLR
03:58 10.8 °C 7.7 °C 1008.0 hPa Calm     81 % 0.0 mm 0.0 W/m2 CLR
04:03 10.6 °C 7.5 °C 1008.0 hPa Calm     81 % 0.0 mm 0.0 W/m2 CLR
04:08 10.3 °C 7.4 °C 1008.0 hPa Calm     82 % 0.0 mm 0.0 W/m2 CLR
04:13 10.1 °C 7.3 °C 1008.0 hPa Calm     83 % 0.0 mm 0.0 W/m2 CLR
04:18 9.9 °C 7.4 °C 1008.0 hPa Calm     84 % 0.0 mm 0.0 W/m2 CLR
04:23 9.9 °C 7.4 °C 1008.0 hPa Calm     84 % 0.0 mm 0.0 W/m2 CLR
04:28 9.8 °C 7.2 °C 1008.0 hPa Calm     84 % 0.0 mm 0.0 W/m2 CLR
04:33 9.7 °C 7.4 °C 1008.0 hPa Calm     86 % 0.0 mm 0.0 W/m2 CLR
04:38 9.7 °C 7.5 °C 1008.0 hPa Calm     86 % 0.0 mm 0.0 W/m2 CLR
04:43 9.7 °C 7.5 °C 1007.7 hPa Calm     86 % 0.0 mm 0.0 W/m2 CLR
04:48 9.6 °C 7.2 °C 1008.0 hPa Calm     85 % 0.0 mm 0.0 W/m2 CLR
04:53 9.5 °C 7.3 °C 1007.7 hPa Calm     86 % 0.0 mm 0.0 W/m2 CLR
04:58 9.5 °C 7.1 °C 1007.7 hPa Calm     85 % 0.0 mm 0.0 W/m2 CLR
05:03 9.5 °C 7.3 °C 1007.7 hPa Calm     86 % 0.0 mm 0.0 W/m2 CLR
05:09 9.8 °C 7.6 °C 1007.7 hPa Calm   1.4 km/h 86 % 0.0 mm 0.0 W/m2 CLR
05:14 9.9 °C 7.6 °C 1007.7 hPa Calm     85 % 0.0 mm 0.0 W/m2 CLR
05:19 9.9 °C 7.3 °C 1007.7 hPa Calm     84 % 0.0 mm 0.0 W/m2 CLR
05:24 9.7 °C 7.2 °C 1007.7 hPa Calm     84 % 0.0 mm 0.0 W/m2 CLR
05:29 9.4 °C 7.1 °C 1007.7 hPa Calm     85 % 0.0 mm 0.0 W/m2 CLR
05:34 9.3 °C 7.1 °C 1007.3 hPa Calm     86 % 0.0 mm 0.0 W/m2 CLR
05:39 9.3 °C 7.1 °C 1007.3 hPa Calm     86 % 0.0 mm 0.0 W/m2 CLR
05:44 9.2 °C 7.2 °C 1007.3 hPa Calm     87 % 0.3 mm 0.0 W/m2 RA
05:49 9.2 °C 7.3 °C 1007.7 hPa Calm     88 % 0.3 mm 0.0 W/m2
05:54 9.2 °C 7.3 °C 1008.0 hPa Calm     88 % 0.5 mm 0.0 W/m2 RA
05:59 9.3 °C 7.6 °C 1008.0 hPa West 13.0 km/h 13.0 km/h 89 % 0.8 mm 0.0 W/m2 RA
06:04 10.6 °C 8.6 °C 1009.4 hPa NW 55.5 km/h 55.5 km/h 87 % 1.8 mm 0.0 W/m2 RA
06:09 10.4 °C 8.4 °C 1009.4 hPa NNW 35.2 km/h 35.2 km/h 87 % 2.3 mm 0.0 W/m2 RA
06:14 10.2 °C 8.2 °C 1009.4 hPa NNW 48.1 km/h 48.1 km/h 87 % 2.3 mm 0.0 W/m2 RA
06:19 10.0 °C 7.9 °C 1009.4 hPa NW 48.1 km/h 48.1 km/h 87 % 2.5 mm 0.0 W/m2 RA
06:24 9.8 °C 7.8 °C 1009.0 hPa NW 31.5 km/h 31.5 km/h 87 % 2.8 mm 0.0 W/m2 RA
06:29 9.7 °C 7.8 °C 1009.0 hPa NW 29.0 km/h 29.0 km/h 88 % 2.8 mm 0.0 W/m2
06:34 9.7 °C 7.8 °C 1009.0 hPa NW 27.8 km/h 27.8 km/h 88 % 3.0 mm 0.0 W/m2 RA
06:39 9.7 °C 7.8 °C 1008.7 hPa WNW 18.5 km/h 18.5 km/h 88 % 3.0 mm 0.0 W/m2 CLR
06:44 9.8 °C 7.9 °C 1008.0 hPa WNW 14.8 km/h 14.8 km/h 88 % 2.8 mm 0.0 W/m2 CLR
06:49 10.1 °C 7.8 °C 1008.7 hPa West 22.2 km/h 22.2 km/h 86 % 2.8 mm 0.0 W/m2 CLR
06:54 10.3 °C 7.9 °C 1008.4 hPa West 11.1 km/h 11.1 km/h 85 % 2.5 mm 0.0 W/m2 CLR
06:59 10.4 °C 8.0 °C 1008.4 hPa WSW 11.1 km/h 11.1 km/h 85 % 2.3 mm 0.0 W/m2 CLR
07:04 10.1 °C 7.9 °C 1008.4 hPa SW 13.0 km/h 13.0 km/h 86 % 1.3 mm 0.0 W/m2 CLR
07:09 9.8 °C 7.8 °C 1008.4 hPa SW 8.0 km/h 8.0 km/h 87 % 0.8 mm 0.0 W/m2 CLR
07:14 9.7 °C 7.8 °C 1008.4 hPa WSW 9.3 km/h 9.3 km/h 88 % 0.5 mm 0.0 W/m2 CLR
07:19 9.8 °C 7.9 °C 1008.4 hPa WSW 11.1 km/h 11.1 km/h 88 % 0.5 mm 0.0 W/m2 CLR
07:24 9.9 °C 7.9 °C 1008.4 hPa West 9.3 km/h 9.3 km/h 87 % 0.3 mm 0.0 W/m2 CLR
07:29 10.0 °C 7.9 °C 1008.0 hPa WSW 7.4 km/h 7.4 km/h 87 % 0.3 mm 0.0 W/m2 CLR
07:34 10.0 °C 7.9 °C 1008.0 hPa WSW 5.6 km/h 5.6 km/h 87 % 0.0 mm 0.0 W/m2 CLR
07:39 9.9 °C 7.8 °C 1008.4 hPa WSW 7.4 km/h 7.4 km/h 87 % 0.0 mm 0.0 W/m2 CLR
07:44 9.8 °C 7.9 °C 1008.4 hPa WSW 7.4 km/h 7.4 km/h 88 % 0.0 mm 0.0 W/m2 CLR
07:49 9.6 °C 7.7 °C 1008.4 hPa WSW 6.4 km/h 6.4 km/h 88 % 0.0 mm 0.0 W/m2 CLR
07:54 9.3 °C 7.6 °C 1008.4 hPa SW 7.4 km/h 7.4 km/h 89 % 0.0 mm 0.0 W/m2 CLR
07:59 9.1 °C 7.4 °C 1008.4 hPa SW 5.6 km/h 5.6 km/h 89 % 0.0 mm 0.0 W/m2 CLR
08:04 8.9 °C 7.4 °C 1008.4 hPa WSW 5.6 km/h 5.6 km/h 90 % 0.0 mm 0.0 W/m2 OVC
08:09 8.9 °C 7.6 °C 1008.4 hPa WSW 6.4 km/h 6.4 km/h 91 % 0.0 mm 0.0 W/m2 OVC
08:14 9.0 °C 7.4 °C 1008.4 hPa WSW 11.3 km/h 11.3 km/h 90 % 0.0 mm 0.0 W/m2 OVC
08:19 9.3 °C 7.6 °C 1008.4 hPa WSW 13.0 km/h 13.0 km/h 89 % 0.0 mm 0.0 W/m2 OVC
08:24 9.7 °C 7.7 °C 1008.4 hPa WSW 11.3 km/h 11.3 km/h 87 % 0.0 mm 11.0 W/m2 BKN
08:29 9.9 °C 7.5 °C 1008.4 hPa WSW 13.0 km/h 13.0 km/h 85 % 0.0 mm 28.0 W/m2 BKN
08:34 10.1 °C 7.6 °C 1008.4 hPa WSW 9.3 km/h 9.3 km/h 84 % 0.3 mm 28.0 W/m2 RA
08:39 10.2 °C 7.4 °C 1008.7 hPa WSW 13.0 km/h 13.0 km/h 83 % 0.3 mm 7.0 W/m2 BKN
08:44 10.8 °C 6.9 °C 1009.7 hPa ENE 57.4 km/h 57.4 km/h 77 % 0.3 mm 0.0 W/m2 OVC
08:49 10.5 °C 6.6 °C 1009.7 hPa ENE 42.6 km/h 42.6 km/h 77 % 0.5 mm 0.0 W/m2 RA
08:54 9.4 °C 6.3 °C 1010.4 hPa ENE 48.1 km/h 48.1 km/h 81 % 0.5 mm 0.0 W/m2 RA
08:59 8.5 °C 5.6 °C 1010.7 hPa ENE 37.0 km/h 37.0 km/h 82 % 1.0 mm 0.0 W/m2 RA
09:04 8.3 °C 5.4 °C 1010.4 hPa ENE 42.6 km/h 42.6 km/h 82 % 1.3 mm 0.0 W/m2 RA
09:09 8.7 °C 5.4 °C 1010.4 hPa ENE 38.9 km/h 38.9 km/h 80 % 1.3 mm 12.0 W/m2
09:14 8.6 °C 5.6 °C 1010.4 hPa ENE 29.0 km/h 29.0 km/h 81 % 1.3 mm 14.0 W/m2 BKN
09:19 8.6 °C 5.6 °C 1010.4 hPa ENE 24.1 km/h 24.1 km/h 81 % 1.3 mm 39.0 W/m2 BKN
09:24 8.6 °C 5.6 °C 1010.0 hPa ENE 18.5 km/h 18.5 km/h 81 % 1.3 mm 26.0 W/m2 BKN
09:29 8.6 °C 5.6 °C 1010.4 hPa ENE 18.5 km/h 18.5 km/h 81 % 1.3 mm 39.0 W/m2 BKN
09:34 8.6 °C 5.6 °C 1010.0 hPa ENE 5.6 km/h 5.6 km/h 81 % 1.0 mm 62.0 W/m2 BKN
09:39 8.7 °C 5.7 °C 1010.0 hPa ENE 16.7 km/h 16.7 km/h 81 % 1.0 mm 100.0 W/m2 SCT
09:44 8.9 °C 5.5 °C 1010.0 hPa ENE 31.5 km/h 31.5 km/h 79 % 1.0 mm 167.0 W/m2 FEW
09:49 9.2 °C 5.6 °C 1010.0 hPa ENE 25.9 km/h 25.9 km/h 78 % 0.8 mm 128.0 W/m2 CLR
09:54 9.2 °C 5.6 °C 1010.0 hPa ENE 25.9 km/h 25.9 km/h 78 % 0.5 mm 98.0 W/m2 CLR
09:59 9.2 °C 5.6 °C 1010.0 hPa ENE 29.6 km/h 29.6 km/h 78 % 0.3 mm 120.0 W/m2 CLR
10:04 9.3 °C 5.3 °C 1010.0 hPa ENE 35.2 km/h 35.2 km/h 76 % 0.0 mm 148.0 W/m2 CLR
10:09 9.4 °C 5.2 °C 1010.0 hPa ENE 31.5 km/h 31.5 km/h 75 % 0.0 mm 172.0 W/m2 CLR
10:14 9.4 °C 5.2 °C 1010.4 hPa ENE 27.8 km/h 27.8 km/h 75 % 0.0 mm 179.0 W/m2 CLR
10:19 9.4 °C 4.8 °C 1010.4 hPa ENE 25.7 km/h 26.7 km/h 73 % 0.0 mm 142.0 W/m2 CLR
10:24 9.4 °C 4.8 °C 1010.7 hPa ENE 27.8 km/h 27.8 km/h 73 % 0.0 mm 134.0 W/m2 CLR
10:29 9.4 °C 4.8 °C 1010.7 hPa ENE 27.8 km/h 27.8 km/h 73 % 0.0 mm 130.0 W/m2 CLR
10:34 9.5 °C 4.5 °C 1010.7 hPa ENE 33.3 km/h 33.3 km/h 71 % 0.0 mm 130.0 W/m2 CLR
10:39 9.5 °C 4.3 °C 1010.4 hPa ENE 33.3 km/h 33.3 km/h 70 % 0.0 mm 148.0 W/m2 CLR
10:44 9.5 °C 4.1 °C 1010.7 hPa ENE 27.8 km/h 27.8 km/h 69 % 0.0 mm 165.0 W/m2 CLR
10:49 9.5 °C 4.1 °C 1010.4 hPa ENE 35.2 km/h 35.2 km/h 69 % 0.0 mm 178.0 W/m2 CLR
10:55 9.6 °C 3.9 °C 1010.4 hPa ENE 38.9 km/h 38.9 km/h 68 % 0.0 mm 232.0 W/m2 CLR
11:00 9.6 °C 4.0 °C 1010.4 hPa ENE 42.6 km/h 42.6 km/h 68 % 0.0 mm 257.0 W/m2 CLR
11:05 9.7 °C 3.8 °C 1010.4 hPa ENE 48.1 km/h 48.1 km/h 67 % 0.0 mm 267.0 W/m2 CLR
11:10 9.8 °C 4.3 °C 1010.4 hPa ENE 38.9 km/h 38.9 km/h 69 % 0.0 mm 341.0 W/m2 CLR
11:15 10.1 °C 4.6 °C 1010.4 hPa ENE 40.2 km/h 40.2 km/h 69 % 0.0 mm 360.0 W/m2 CLR
11:20 10.1 °C 4.3 °C 1010.7 hPa ENE 42.6 km/h 42.6 km/h 67 % 0.0 mm 237.0 W/m2 CLR
11:25 9.9 °C 3.8 °C 1010.7 hPa ENE 64.8 km/h 64.8 km/h 66 % 0.0 mm 176.0 W/m2 CLR
11:30 9.7 °C 3.7 °C 1010.4 hPa ENE 55.5 km/h 55.5 km/h 66 % 0.0 mm 162.0 W/m2 CLR
11:35 9.8 °C 4.2 °C 1011.1 hPa ENE 38.9 km/h 38.9 km/h 68 % 0.0 mm 269.0 W/m2 CLR
11:40 10.3 °C 4.2 °C 1010.7 hPa ENE 55.5 km/h 55.5 km/h 66 % 0.0 mm 506.0 W/m2 CLR
11:45 10.4 °C 3.7 °C 1010.7 hPa ENE 62.9 km/h 62.9 km/h 63 % 0.0 mm 499.0 W/m2 CLR
11:50 10.6 °C 4.1 °C 1011.1 hPa ENE 59.2 km/h 59.2 km/h 64 % 0.0 mm 499.0 W/m2 CLR
11:55 10.7 °C 3.9 °C 1011.1 hPa ENE 61.1 km/h 61.1 km/h 63 % 0.0 mm 501.0 W/m2 CLR
12:00 10.8 °C 3.8 °C 1011.1 hPa ENE 48.1 km/h 48.1 km/h 62 % 0.0 mm 508.0 W/m2 CLR
12:05 10.8 °C 3.6 °C 1011.1 hPa ENE 57.4 km/h 57.4 km/h 61 % 0.0 mm 527.0 W/m2 CLR
12:10 10.9 °C 3.7 °C 1011.4 hPa ENE 57.4 km/h 57.4 km/h 61 % 0.0 mm 541.0 W/m2 CLR
12:15 11.1 °C 3.8 °C 1011.1 hPa ENE 44.4 km/h 44.4 km/h 61 % 0.0 mm 522.0 W/m2 CLR
12:20 11.2 °C 3.7 °C 1011.1 hPa ENE 51.8 km/h 51.8 km/h 60 % 0.0 mm 540.0 W/m2 CLR
12:25 11.2 °C 3.7 °C 1011.1 hPa ENE 55.5 km/h 55.5 km/h 60 % 0.0 mm 598.0 W/m2 CLR
12:30 11.2 °C 3.5 °C 1011.1 hPa ENE 64.8 km/h 64.8 km/h 59 % 0.0 mm 592.0 W/m2 CLR
12:35 11.5 °C 4.4 °C 1011.1 hPa ENE 27.8 km/h 27.8 km/h 62 % 0.0 mm 714.0 W/m2 CLR
12:40 11.4 °C 3.7 °C 1011.1 hPa ENE 55.5 km/h 55.5 km/h 59 % 0.0 mm 174.0 W/m2 CLR
12:45 11.0 °C 3.1 °C 1011.7 hPa ENE 46.3 km/h 46.3 km/h 58 % 0.0 mm 163.0 W/m2 CLR
12:50 10.7 °C 2.3 °C 1011.7 hPa ENE 62.8 km/h 62.8 km/h 56 % 0.0 mm 171.0 W/m2 CLR
12:55 10.4 °C 2.2 °C 1011.7 hPa ENE 48.3 km/h 48.3 km/h 57 % 0.0 mm 163.0 W/m2 CLR
13:00 10.4 °C 2.3 °C 1011.7 hPa ENE 51.8 km/h 51.8 km/h 57 % 0.0 mm 144.0 W/m2 CLR
13:05 10.6 °C 2.6 °C 1011.7 hPa ENE 42.6 km/h 42.6 km/h 58 % 0.0 mm 151.0 W/m2 CLR
13:10 10.9 °C 2.7 °C 1011.7 hPa ENE 55.5 km/h 55.5 km/h 57 % 0.0 mm 568.0 W/m2 CLR
13:15 11.3 °C 2.6 °C 1012.1 hPa ENE 55.5 km/h 55.5 km/h 55 % 0.0 mm 679.0 W/m2 CLR
13:20 11.4 °C 2.4 °C 1012.1 hPa ENE 55.5 km/h 55.5 km/h 54 % 0.0 mm 327.0 W/m2 CLR
13:25 11.2 °C 2.2 °C 1012.1 hPa ENE 42.6 km/h 42.6 km/h 54 % 0.0 mm 202.0 W/m2 CLR
13:30 11.0 °C 2.1 °C 1012.1 hPa ENE 51.8 km/h 51.8 km/h 54 % 0.0 mm 125.0 W/m2 CLR
13:35 10.8 °C 2.2 °C 1012.1 hPa ENE 40.2 km/h 40.2 km/h 55 % 0.0 mm 163.0 W/m2 CLR
13:40 10.8 °C 2.4 °C 1012.1 hPa ENE 53.7 km/h 53.7 km/h 56 % 0.0 mm 105.0 W/m2 CLR
13:45 10.7 °C 2.2 °C 1012.1 hPa ENE 61.1 km/h 61.1 km/h 56 % 0.0 mm 109.0 W/m2 CLR
13:50 10.6 °C 2.4 °C 1012.1 hPa ENE 49.9 km/h 49.9 km/h 57 % 0.0 mm 174.0 W/m2 CLR
13:55 10.6 °C 2.1 °C 1012.8 hPa ENE 66.6 km/h 66.6 km/h 56 % 0.0 mm 79.0 W/m2 CLR
14:00 10.6 °C 2.4 °C 1012.4 hPa ENE 46.7 km/h 46.7 km/h 57 % 0.0 mm 127.0 W/m2 CLR
14:05 10.6 °C 2.6 °C 1012.4 hPa ENE 42.6 km/h 42.6 km/h 58 % 0.0 mm 130.0 W/m2 CLR
14:10 10.4 °C 2.2 °C 1012.8 hPa ENE 51.8 km/h 51.8 km/h 57 % 0.0 mm 155.0 W/m2 CLR
14:15 10.4 °C 2.5 °C 1012.8 hPa ENE 50.0 km/h 50.0 km/h 58 % 0.0 mm 128.0 W/m2 CLR
14:20 10.4 °C 2.7 °C 1012.8 hPa ENE 42.6 km/h 42.6 km/h 59 % 0.0 mm 223.0 W/m2 CLR
14:25 10.4 °C 2.5 °C 1012.8 hPa ENE 35.4 km/h 35.4 km/h 58 % 0.0 mm 142.0 W/m2 CLR
14:30 10.5 °C 2.8 °C 1012.4 hPa ENE 48.1 km/h 48.1 km/h 59 % 0.0 mm 176.0 W/m2 CLR
14:35 10.7 °C 2.7 °C 1012.8 hPa ENE 42.6 km/h 42.6 km/h 58 % 0.0 mm 72.0 W/m2 CLR
14:40 10.4 °C 2.8 °C 1013.1 hPa ENE 53.7 km/h 53.7 km/h 59 % 0.0 mm 121.0 W/m2 CLR
14:45 10.1 °C 2.9 °C 1013.4 hPa ENE 55.5 km/h 55.5 km/h 61 % 0.0 mm 72.0 W/m2 CLR
14:50 9.5 °C 2.6 °C 1013.4 hPa ENE 54.7 km/h 54.7 km/h 62 % 0.0 mm 65.0 W/m2 FEW
14:55 9.1 °C 2.9 °C 1013.4 hPa ENE 53.7 km/h 53.7 km/h 65 % 0.0 mm 104.0 W/m2 FEW
15:00 9.3 °C 3.2 °C 1013.8 hPa ENE 46.3 km/h 46.3 km/h 66 % 0.0 mm 199.0 W/m2 FEW
15:05 9.5 °C 3.0 °C 1014.1 hPa ENE 44.4 km/h 44.4 km/h 64 % 0.0 mm 97.0 W/m2 CLR
15:10 9.3 °C 3.1 °C 1014.1 hPa ENE 55.5 km/h 55.5 km/h 65 % 0.0 mm 62.0 W/m2 CLR
15:15 9.0 °C 3.4 °C 1014.1 hPa ENE 42.6 km/h 42.6 km/h 68 % 0.0 mm 88.0 W/m2 FEW
15:20 8.7 °C 3.6 °C 1014.1 hPa ENE 40.7 km/h 40.7 km/h 70 % 0.0 mm 120.0 W/m2 FEW
15:25 8.6 °C 3.7 °C 1014.1 hPa ENE 29.6 km/h 29.6 km/h 71 % 0.0 mm 132.0 W/m2 CLR
15:30 8.6 °C 3.8 °C 1014.1 hPa ENE 25.9 km/h 25.9 km/h 72 % 0.0 mm 169.0 W/m2 CLR
15:35 8.8 °C 4.1 °C 1014.1 hPa ENE 27.8 km/h 27.8 km/h 72 % 0.0 mm 271.0 W/m2 CLR
15:40 9.1 °C 4.1 °C 1014.1 hPa ENE 29.6 km/h 29.6 km/h 71 % 0.0 mm 186.0 W/m2 CLR
15:45 9.3 °C 4.3 °C 1014.1 hPa ENE 35.4 km/h 35.4 km/h 71 % 0.0 mm 214.0 W/m2 CLR
15:50 9.8 °C 3.9 °C 1014.1 hPa ENE 33.3 km/h 33.3 km/h 67 % 0.0 mm 353.0 W/m2 CLR
15:55 9.9 °C 4.1 °C 1014.1 hPa ENE 35.2 km/h 35.2 km/h 67 % 0.0 mm 332.0 W/m2 CLR
16:00 9.8 °C 4.2 °C 1014.4 hPa ENE 31.5 km/h 31.5 km/h 68 % 0.0 mm 360.0 W/m2 CLR
16:05 9.7 °C 3.9 °C 1014.4 hPa ENE 32.2 km/h 32.2 km/h 67 % 0.0 mm 88.0 W/m2 CLR
16:10 9.5 °C 3.2 °C 1014.8 hPa ENE 51.8 km/h 51.8 km/h 65 % 0.0 mm 76.0 W/m2 FEW
16:15 9.5 °C 3.2 °C 1015.1 hPa ENE 38.9 km/h 38.9 km/h 65 % 0.0 mm 33.0 W/m2 FEW
16:20 9.4 °C 3.4 °C 1015.1 hPa ENE 35.2 km/h 35.2 km/h 66 % 0.0 mm 56.0 W/m2 SCT
16:25 9.2 °C 2.8 °C 1014.8 hPa ENE 44.4 km/h 44.4 km/h 64 % 0.0 mm 79.0 W/m2 SCT
16:30 9.4 °C 2.9 °C 1014.8 hPa ENE 29.6 km/h 29.6 km/h 64 % 0.0 mm 276.0 W/m2 FEW
16:35 9.7 °C 2.9 °C 1014.8 hPa ENE 31.5 km/h 31.5 km/h 63 % 0.0 mm 253.0 W/m2 CLR
16:40 9.9 °C 3.0 °C 1015.1 hPa ENE 38.9 km/h 38.9 km/h 62 % 0.0 mm 237.0 W/m2 CLR
16:45 10.1 °C 3.3 °C 1015.1 hPa ENE 42.6 km/h 42.6 km/h 63 % 0.0 mm 223.0 W/m2 CLR
16:51 10.0 °C 3.1 °C 1015.1 hPa ENE 46.3 km/h 46.3 km/h 62 % 0.0 mm 211.0 W/m2 CLR
16:56 9.8 °C 3.1 °C 1015.1 hPa ENE 38.9 km/h 38.9 km/h 63 % 0.0 mm 42.0 W/m2 CLR
17:01 9.7 °C 3.0 °C 1015.1 hPa ENE 27.8 km/h 27.8 km/h 63 % 0.0 mm 174.0 W/m2 FEW
17:06 9.7 °C 2.7 °C 1015.5 hPa ENE 42.6 km/h 42.6 km/h 62 % 0.0 mm 155.0 W/m2 FEW
17:11 9.7 °C 2.6 °C 1015.8 hPa ENE 35.2 km/h 35.2 km/h 61 % 0.0 mm 51.0 W/m2 CLR
17:16 9.7 °C 2.6 °C 1015.8 hPa ENE 42.6 km/h 42.6 km/h 61 % 0.0 mm 123.0 W/m2 FEW
17:21 9.8 °C 2.4 °C 1016.1 hPa ENE 32.2 km/h 32.2 km/h 60 % 0.0 mm 135.0 W/m2 CLR
17:26 9.9 °C 2.5 °C 1016.1 hPa ENE 24.1 km/h 24.1 km/h 60 % 0.0 mm 32.0 W/m2 CLR
17:31 9.8 °C 2.4 °C 1016.1 hPa ENE 20.9 km/h 20.9 km/h 60 % 0.0 mm 32.0 W/m2 BKN
17:36 9.7 °C 2.3 °C 1016.1 hPa ENE 33.3 km/h 33.3 km/h 60 % 0.0 mm 35.0 W/m2 BKN
17:41 9.6 °C 2.4 °C 1016.1 hPa ENE 27.8 km/h 27.8 km/h 61 % 0.0 mm 62.0 W/m2 SCT
17:46 9.6 °C 2.4 °C 1016.1 hPa ENE 25.7 km/h 25.7 km/h 61 % 0.0 mm 46.0 W/m2 SCT
17:51 9.6 °C 2.2 °C 1016.1 hPa ENE 31.5 km/h 31.5 km/h 60 % 0.0 mm 42.0 W/m2 BKN
17:56 9.6 °C 2.6 °C 1016.1 hPa ENE 18.5 km/h 18.5 km/h 62 % 0.0 mm 25.0 W/m2 BKN
18:01 9.4 °C 2.4 °C 1016.1 hPa ENE 31.5 km/h 31.5 km/h 62 % 0.0 mm 14.0 W/m2 BKN
18:06 9.3 °C 2.4 °C 1016.5 hPa ENE 14.8 km/h 14.8 km/h 62 % 0.0 mm 12.0 W/m2 BKN
18:11 9.2 °C 2.6 °C 1016.5 hPa ENE 13.0 km/h 13.0 km/h 63 % 0.0 mm 11.0 W/m2 BKN
18:16 9.2 °C 2.3 °C 1016.8 hPa ENE 14.8 km/h 14.8 km/h 62 % 0.0 mm 5.0 W/m2 OVC
18:21 9.2 °C 2.6 °C 1016.8 hPa ENE 14.8 km/h 14.8 km/h 63 % 0.0 mm 0.0 W/m2 OVC
18:26 9.2 °C 1.8 °C 1017.2 hPa ENE 31.5 km/h 31.5 km/h 60 % 0.0 mm 0.0 W/m2 OVC
18:31 9.3 °C 1.7 °C 1017.2 hPa ENE 27.8 km/h 27.8 km/h 59 % 0.0 mm 0.0 W/m2 CLR
18:36 9.3 °C 1.7 °C 1017.2 hPa ENE 18.5 km/h 18.5 km/h 59 % 0.0 mm 0.0 W/m2 CLR
18:41 9.2 °C 1.3 °C 1017.5 hPa ENE 25.9 km/h 25.9 km/h 58 % 0.0 mm 0.0 W/m2 CLR
18:46 9.1 °C 1.4 °C 1017.8 hPa ENE 31.5 km/h 31.5 km/h 59 % 0.0 mm 0.0 W/m2 CLR
18:51 9.0 °C 1.2 °C 1018.2 hPa ENE 38.9 km/h 38.9 km/h 58 % 0.0 mm 0.0 W/m2 CLR
18:56 9.1 °C 1.3 °C 1018.2 hPa ENE 33.3 km/h 33.3 km/h 58 % 0.0 mm 0.0 W/m2 CLR
19:01 9.0 °C 1.4 °C 1018.2 hPa ENE 37.0 km/h 37.0 km/h 59 % 0.0 mm 0.0 W/m2 CLR
19:06 9.0 °C 1.4 °C 1018.5 hPa ENE 31.5 km/h 31.5 km/h 59 % 0.0 mm 0.0 W/m2 CLR
19:11 8.9 °C 1.6 °C 1018.5 hPa ENE 31.5 km/h 31.5 km/h 60 % 0.0 mm 0.0 W/m2 CLR
19:16 8.8 °C 1.5 °C 1018.8 hPa ENE 35.2 km/h 35.2 km/h 60 % 0.0 mm 0.0 W/m2 CLR
19:21 8.7 °C 1.6 °C 1019.2 hPa ENE 38.9 km/h 38.9 km/h 61 % 0.0 mm 0.0 W/m2 CLR
19:26 8.6 °C 1.4 °C 1019.2 hPa ENE 44.4 km/h 44.4 km/h 61 % 0.0 mm 0.0 W/m2 CLR
19:31 8.5 °C 1.6 °C 1019.5 hPa ENE 42.6 km/h 42.6 km/h 62 % 0.0 mm 0.0 W/m2 CLR
19:36 8.4 °C 1.5 °C 1019.5 hPa ENE 42.6 km/h 42.6 km/h 62 % 0.0 mm 0.0 W/m2 CLR
19:41 8.3 °C 1.7 °C 1019.5 hPa ENE 42.6 km/h 42.6 km/h 63 % 0.0 mm 0.0 W/m2 CLR
19:46 8.2 °C 1.6 °C 1019.5 hPa ENE 29.6 km/h 29.6 km/h 63 % 0.0 mm 0.0 W/m2 CLR
19:51 8.1 °C 1.7 °C 1019.5 hPa ENE 33.3 km/h 33.3 km/h 64 % 0.0 mm 0.0 W/m2 CLR
19:56 8.0 °C 1.4 °C 1019.9 hPa ENE 50.0 km/h 50.0 km/h 63 % 0.0 mm 0.0 W/m2 CLR
20:01 7.9 °C 1.5 °C 1019.9 hPa ENE 35.2 km/h 35.2 km/h 64 % 0.0 mm 0.0 W/m2 CLR
20:06 7.9 °C 1.3 °C 1019.9 hPa ENE 50.0 km/h 50.0 km/h 63 % 0.0 mm 0.0 W/m2 CLR
20:11 7.8 °C 1.4 °C 1020.2 hPa ENE 42.6 km/h 42.6 km/h 64 % 0.0 mm 0.0 W/m2 CLR
20:16 7.8 °C 1.4 °C 1020.2 hPa ENE 57.4 km/h 57.4 km/h 64 % 0.0 mm 0.0 W/m2 CLR
20:21 7.7 °C 1.5 °C 1020.2 hPa NNE 42.6 km/h 42.6 km/h 65 % 0.0 mm 0.0 W/m2 CLR
20:26 7.6 °C 1.4 °C 1019.9 hPa NW 37.0 km/h 37.0 km/h 65 % 0.0 mm 0.0 W/m2 CLR
20:31 7.4 °C 1.3 °C 1019.9 hPa NW 38.9 km/h 38.9 km/h 65 % 0.0 mm 0.0 W/m2 CLR
20:36 7.5 °C 1.3 °C 1019.9 hPa NW 40.7 km/h 40.7 km/h 65 % 0.0 mm 0.0 W/m2 CLR
20:41 7.4 °C 1.3 °C 1020.5 hPa NW 46.3 km/h 46.3 km/h 65 % 0.0 mm 0.0 W/m2 CLR
20:46 7.4 °C 1.2 °C 1020.2 hPa NW 37.0 km/h 37.0 km/h 65 % 0.0 mm 0.0 W/m2 CLR
20:47 7.4 °C 1.2 °C 1020.2 hPa NW 40.7 km/h 40.7 km/h 65 % 0.0 mm 0.0 W/m2 CLR
20:52 7.3 °C 1.2 °C 1020.2 hPa NW 42.6 km/h 42.6 km/h 65 % 0.0 mm 0.0 W/m2 CLR
20:57 7.3 °C 1.2 °C 1020.5 hPa NW 44.4 km/h 44.4 km/h 65 % 0.0 mm 0.0 W/m2 CLR
21:02 7.4 °C 1.2 °C 1020.5 hPa NW 53.7 km/h 53.7 km/h 65 % 0.0 mm 0.0 W/m2 CLR
21:07 7.4 °C 1.1 °C 1020.5 hPa NW 48.1 km/h 48.1 km/h 64 % 0.0 mm 0.0 W/m2 CLR
21:12 7.6 °C 0.9 °C 1020.9 hPa NW 55.5 km/h 55.5 km/h 63 % 0.0 mm 0.0 W/m2 CLR
21:17 7.7 °C 0.8 °C 1020.5 hPa NW 48.1 km/h 48.1 km/h 62 % 0.0 mm 0.0 W/m2
21:22 7.7 °C 0.6 °C 1020.9 hPa NW 62.9 km/h 62.9 km/h 61 % 0.0 mm 0.0 W/m2 CLR
21:27 7.7 °C 0.4 °C 1020.5 hPa NW 50.0 km/h 50.0 km/h 60 % 0.0 mm 0.0 W/m2 CLR
21:32 7.6 °C 0.5 °C 1020.5 hPa NW 50.0 km/h 50.5 km/h 61 % 0.0 mm 0.0 W/m2 CLR
21:37 7.5 °C 0.4 °C 1020.5 hPa NW 40.7 km/h 40.7 km/h 61 % 0.0 mm 0.0 W/m2 CLR
21:42 7.4 °C 0.6 °C 1020.9 hPa NW 51.8 km/h 51.8 km/h 62 % 0.0 mm 0.0 W/m2 CLR
21:47 7.3 °C 0.5 °C 1020.5 hPa NW 42.6 km/h 42.6 km/h 62 % 0.0 mm 0.0 W/m2 CLR
21:52 7.2 °C 0.6 °C 1020.9 hPa NW 29.6 km/h 29.6 km/h 63 % 0.0 mm 0.0 W/m2 CLR
21:57 7.1 °C 0.6 °C 1020.9 hPa NW 35.2 km/h 35.2 km/h 63 % 0.0 mm 0.0 W/m2 CLR
22:02 7.2 °C 0.4 °C 1020.9 hPa NW 48.1 km/h 48.1 km/h 62 % 0.0 mm 0.0 W/m2 CLR
22:07 7.2 °C 0.4 °C 1020.9 hPa NW 51.8 km/h 51.8 km/h 62 % 0.0 mm 0.0 W/m2 CLR
22:12 7.3 °C 0.2 °C 1020.9 hPa NW 50.0 km/h 50.0 km/h 61 % 0.0 mm 0.0 W/m2 CLR
22:13 7.3 °C 0.2 °C 1020.9 hPa NW 50.0 km/h 50.0 km/h 61 % 0.0 mm 0.0 W/m2 CLR
22:18 7.3 °C 0.3 °C 1020.9 hPa NW 48.3 km/h 48.3 km/h 61 % 0.0 mm 0.0 W/m2 CLR
22:23 7.4 °C 0.2 °C 1020.9 hPa NW 44.4 km/h 44.4 km/h 60 % 0.0 mm 0.0 W/m2 CLR
22:28 7.4 °C 0.3 °C 1020.9 hPa NW 41.8 km/h 41.8 km/h 61 % 0.0 mm 0.0 W/m2 CLR
22:33 7.4 °C 0.1 °C 1020.9 hPa NW 62.9 km/h 62.9 km/h 60 % 0.0 mm 0.0 W/m2 CLR
22:38 7.4 °C 0.2 °C 1020.9 hPa NW 68.5 km/h 68.5 km/h 60 % 0.0 mm 0.0 W/m2
22:43 7.5 °C 0.2 °C 1020.9 hPa NW 46.3 km/h 46.3 km/h 60 % 0.0 mm 0.0 W/m2
22:48 7.6 °C 0.1 °C 1020.9 hPa NW 44.4 km/h 44.4 km/h 59 % 0.0 mm 0.0 W/m2 CLR
22:53 7.5 °C 0.0 °C 1021.2 hPa NW 57.4 km/h 57.4 km/h 59 % 0.0 mm 0.0 W/m2 CLR
22:58 7.6 °C 0.1 °C 1021.2 hPa NW 57.4 km/h 57.4 km/h 59 % 0.0 mm 0.0 W/m2 CLR
23:03 7.4 °C 0.1 °C 1021.2 hPa NW 62.8 km/h 62.8 km/h 60 % 0.0 mm 0.0 W/m2 CLR
23:08 7.3 °C 0.3 °C 1021.6 hPa NW 53.7 km/h 53.7 km/h 61 % 0.0 mm 0.0 W/m2 CLR
23:13 7.2 °C 0.2 °C 1021.2 hPa NW 44.4 km/h 44.4 km/h 61 % 0.0 mm 0.0 W/m2 CLR
23:18 7.2 °C 0.2 °C 1021.2 hPa NW 42.6 km/h 42.6 km/h 61 % 0.0 mm 0.0 W/m2 CLR
23:23 7.2 °C 0.2 °C 1021.2 hPa NW 57.4 km/h 57.4 km/h 61 % 0.0 mm 0.0 W/m2 CLR
23:28 7.2 °C 0.2 °C 1021.6 hPa NW 42.6 km/h 42.6 km/h 61 % 0.0 mm 0.0 W/m2 CLR
23:33 7.2 °C 0.4 °C 1021.6 hPa NW 42.6 km/h 42.6 km/h 62 % 0.0 mm 0.0 W/m2 CLR
23:38 7.2 °C 0.4 °C 1021.6 hPa NW 42.6 km/h 42.6 km/h 62 % 0.0 mm 0.0 W/m2 CLR
23:43 7.2 °C 0.4 °C 1021.6 hPa NW 38.9 km/h 38.9 km/h 62 % 0.0 mm 0.0 W/m2 CLR
23:48 7.1 °C 0.5 °C 1021.6 hPa NW 48.1 km/h 48.1 km/h 63 % 0.0 mm 0.0 W/m2 CLR
23:53 7.1 °C 0.5 °C 1021.9 hPa NW 48.1 km/h 48.1 km/h 63 % 0.0 mm 0.0 W/m2 CLR
23:58 7.1 °C 0.6 °C 1021.9 hPa NW 29.6 km/h 29.6 km/h 63 % 0.0 mm 0.0 W/m2 CLR
Lo Temps de Massalio
Compliments of Weather Underground - 1.25 mb